sensor_id;sensor_type;location;lat;lon;timestamp;temperature;humidity
7000;DHT22;3540;53.242;10.408;2022-12-17T00:01:44;-3.10;99.90
7000;DHT22;3540;53.242;10.408;2022-12-17T00:04:28;-3.10;99.90
7000;DHT22;3540;53.242;10.408;2022-12-17T00:07:12;-3.00;99.90
7000;DHT22;3540;53.242;10.408;2022-12-17T00:09:57;-3.10;99.90
7000;DHT22;3540;53.242;10.408;2022-12-17T00:12:41;-3.10;99.90
7000;DHT22;3540;53.242;10.408;2022-12-17T00:15:25;-3.00;99.90
7000;DHT22;3540;53.242;10.408;2022-12-17T00:18:10;-3.00;99.90
7000;DHT22;3540;53.242;10.408;2022-12-17T00:20:55;-3.00;99.90
7000;DHT22;3540;53.242;10.408;2022-12-17T00:23:40;-3.00;99.90
7000;DHT22;3540;53.242;10.408;2022-12-17T00:26:24;-3.00;99.90
7000;DHT22;3540;53.242;10.408;2022-12-17T00:29:08;-3.00;99.90
7000;DHT22;3540;53.242;10.408;2022-12-17T00:31:52;-3.00;99.90
7000;DHT22;3540;53.242;10.408;2022-12-17T00:34:37;-3.00;99.90
7000;DHT22;3540;53.242;10.408;2022-12-17T00:37:21;-3.10;99.90
7000;DHT22;3540;53.242;10.408;2022-12-17T00:40:05;-3.10;99.90
7000;DHT22;3540;53.242;10.408;2022-12-17T00:43:10;-3.10;99.90
7000;DHT22;3540;53.242;10.408;2022-12-17T00:45:55;-3.10;99.90
7000;DHT22;3540;53.242;10.408;2022-12-17T00:48:40;-3.00;99.90
7000;DHT22;3540;53.242;10.408;2022-12-17T00:51:24;-3.00;99.90
7000;DHT22;3540;53.242;10.408;2022-12-17T00:54:10;-3.00;99.90
7000;DHT22;3540;53.242;10.408;2022-12-17T00:56:54;-2.90;99.90
7000;DHT22;3540;53.242;10.408;2022-12-17T00:59:39;-2.90;99.90
7000;DHT22;3540;53.242;10.408;2022-12-17T01:02:23;-2.80;99.90
7000;DHT22;3540;53.242;10.408;2022-12-17T01:05:08;-2.90;99.90
7000;DHT22;3540;53.242;10.408;2022-12-17T01:07:52;-2.90;99.90
7000;DHT22;3540;53.242;10.408;2022-12-17T01:11:04;-2.90;99.90
7000;DHT22;3540;53.242;10.408;2022-12-17T01:13:49;-2.90;99.90
7000;DHT22;3540;53.242;10.408;2022-12-17T01:16:33;-2.80;99.90
7000;DHT22;3540;53.242;10.408;2022-12-17T01:19:17;-2.80;99.90
7000;DHT22;3540;53.242;10.408;2022-12-17T01:22:02;-2.70;99.90
7000;DHT22;3540;53.242;10.408;2022-12-17T01:24:46;-2.60;99.90
7000;DHT22;3540;53.242;10.408;2022-12-17T01:27:30;-2.70;99.90
7000;DHT22;3540;53.242;10.408;2022-12-17T01:30:15;-2.70;99.90
7000;DHT22;3540;53.242;10.408;2022-12-17T01:33:00;-2.70;99.90
7000;DHT22;3540;53.242;10.408;2022-12-17T01:35:44;-2.70;99.90
7000;DHT22;3540;53.242;10.408;2022-12-17T01:38:29;-2.70;99.90
7000;DHT22;3540;53.242;10.408;2022-12-17T01:41:13;-2.70;99.90
7000;DHT22;3540;53.242;10.408;2022-12-17T01:43:57;-2.60;99.90
7000;DHT22;3540;53.242;10.408;2022-12-17T01:46:47;-2.80;99.90
7000;DHT22;3540;53.242;10.408;2022-12-17T01:49:33;-2.80;99.90
7000;DHT22;3540;53.242;10.408;2022-12-17T01:52:18;-2.90;99.90
7000;DHT22;3540;53.242;10.408;2022-12-17T01:55:03;-3.00;99.90
7000;DHT22;3540;53.242;10.408;2022-12-17T01:57:48;-3.00;99.90
7000;DHT22;3540;53.242;10.408;2022-12-17T02:00:32;-3.00;99.90
7000;DHT22;3540;53.242;10.408;2022-12-17T02:03:17;-3.00;99.90
7000;DHT22;3540;53.242;10.408;2022-12-17T02:06:15;-3.00;99.90
7000;DHT22;3540;53.242;10.408;2022-12-17T02:17:53;-3.10;99.90
7000;DHT22;3540;53.242;10.408;2022-12-17T02:20:50;-3.10;99.90
7000;DHT22;3540;53.242;10.408;2022-12-17T02:26:37;-3.00;99.90
7000;DHT22;3540;53.242;10.408;2022-12-17T02:29:24;-2.90;99.90
7000;DHT22;3540;53.242;10.408;2022-12-17T02:32:11;-2.90;99.90
7000;DHT22;3540;53.242;10.408;2022-12-17T02:34:57;-2.80;99.90
7000;DHT22;3540;53.242;10.408;2022-12-17T02:37:47;-2.80;99.90
7000;DHT22;3540;53.242;10.408;2022-12-17T02:40:32;-2.90;99.90
7000;DHT22;3540;53.242;10.408;2022-12-17T02:43:18;-2.90;99.90
7000;DHT22;3540;53.242;10.408;2022-12-17T02:46:03;-2.90;99.90
7000;DHT22;3540;53.242;10.408;2022-12-17T02:48:49;-2.90;99.90
7000;DHT22;3540;53.242;10.408;2022-12-17T02:51:33;-2.90;99.90
7000;DHT22;3540;53.242;10.408;2022-12-17T02:54:17;-2.90;99.90
7000;DHT22;3540;53.242;10.408;2022-12-17T02:57:01;-2.90;99.90
7000;DHT22;3540;53.242;10.408;2022-12-17T02:59:45;-2.90;99.90
7000;DHT22;3540;53.242;10.408;2022-12-17T03:02:29;-2.90;99.90
7000;DHT22;3540;53.242;10.408;2022-12-17T03:05:13;-2.90;99.90
7000;DHT22;3540;53.242;10.408;2022-12-17T03:07:57;-2.90;99.90
7000;DHT22;3540;53.242;10.408;2022-12-17T03:10:41;-2.90;99.90
7000;DHT22;3540;53.242;10.408;2022-12-17T03:13:27;-2.90;99.90
7000;DHT22;3540;53.242;10.408;2022-12-17T03:16:14;-2.90;99.90
7000;DHT22;3540;53.242;10.408;2022-12-17T03:18:59;-2.80;99.90
7000;DHT22;3540;53.242;10.408;2022-12-17T03:21:43;-2.90;99.90
7000;DHT22;3540;53.242;10.408;2022-12-17T03:24:27;-2.90;99.90
7000;DHT22;3540;53.242;10.408;2022-12-17T03:27:12;-3.00;99.90
7000;DHT22;3540;53.242;10.408;2022-12-17T03:29:56;-3.00;99.90
7000;DHT22;3540;53.242;10.408;2022-12-17T03:32:40;-3.10;99.90
7000;DHT22;3540;53.242;10.408;2022-12-17T03:35:24;-3.00;99.90
7000;DHT22;3540;53.242;10.408;2022-12-17T03:38:10;-3.00;99.90
7000;DHT22;3540;53.242;10.408;2022-12-17T03:40:54;-3.00;99.90
7000;DHT22;3540;53.242;10.408;2022-12-17T03:43:39;-2.90;99.90
7000;DHT22;3540;53.242;10.408;2022-12-17T03:46:23;-2.90;99.90
7000;DHT22;3540;53.242;10.408;2022-12-17T03:49:07;-2.90;99.90
7000;DHT22;3540;53.242;10.408;2022-12-17T03:51:54;-2.90;99.90
7000;DHT22;3540;53.242;10.408;2022-12-17T03:54:42;-2.90;99.90
7000;DHT22;3540;53.242;10.408;2022-12-17T03:57:26;-2.90;99.90
7000;DHT22;3540;53.242;10.408;2022-12-17T04:00:11;-2.80;99.90
7000;DHT22;3540;53.242;10.408;2022-12-17T04:02:55;-2.80;99.90
7000;DHT22;3540;53.242;10.408;2022-12-17T04:05:39;-2.80;99.90
7000;DHT22;3540;53.242;10.408;2022-12-17T04:08:24;-2.80;99.90
7000;DHT22;3540;53.242;10.408;2022-12-17T04:11:08;-2.80;99.90
7000;DHT22;3540;53.242;10.408;2022-12-17T04:13:52;-2.90;99.90
7000;DHT22;3540;53.242;10.408;2022-12-17T04:16:36;-2.90;99.90
7000;DHT22;3540;53.242;10.408;2022-12-17T04:19:20;-2.90;99.90
7000;DHT22;3540;53.242;10.408;2022-12-17T04:22:05;-3.00;99.90
7000;DHT22;3540;53.242;10.408;2022-12-17T04:24:49;-3.20;99.90
7000;DHT22;3540;53.242;10.408;2022-12-17T04:27:40;-3.20;99.90
7000;DHT22;3540;53.242;10.408;2022-12-17T04:30:24;-3.20;99.90
7000;DHT22;3540;53.242;10.408;2022-12-17T04:33:09;-3.30;99.90
7000;DHT22;3540;53.242;10.408;2022-12-17T04:35:53;-3.40;99.90
7000;DHT22;3540;53.242;10.408;2022-12-17T04:38:37;-3.40;99.90
7000;DHT22;3540;53.242;10.408;2022-12-17T04:41:21;-3.50;99.90
7000;DHT22;3540;53.242;10.408;2022-12-17T04:44:05;-3.60;99.90
7000;DHT22;3540;53.242;10.408;2022-12-17T04:46:49;-3.60;99.90
7000;DHT22;3540;53.242;10.408;2022-12-17T04:49:33;-3.70;99.90
7000;DHT22;3540;53.242;10.408;2022-12-17T04:52:17;-3.70;99.90
7000;DHT22;3540;53.242;10.408;2022-12-17T04:55:02;-3.80;99.90
7000;DHT22;3540;53.242;10.408;2022-12-17T04:57:46;-3.90;99.90
7000;DHT22;3540;53.242;10.408;2022-12-17T05:00:30;-3.90;99.90
7000;DHT22;3540;53.242;10.408;2022-12-17T05:03:15;-4.00;99.90
7000;DHT22;3540;53.242;10.408;2022-12-17T05:06:00;-4.00;99.90
7000;DHT22;3540;53.242;10.408;2022-12-17T05:08:45;-4.00;99.90
7000;DHT22;3540;53.242;10.408;2022-12-17T05:11:29;-4.10;99.90
7000;DHT22;3540;53.242;10.408;2022-12-17T05:14:14;-4.10;99.90
7000;DHT22;3540;53.242;10.408;2022-12-17T05:16:58;-4.10;99.90
7000;DHT22;3540;53.242;10.408;2022-12-17T05:19:42;-4.20;99.90
7000;DHT22;3540;53.242;10.408;2022-12-17T05:22:26;-4.20;99.90
7000;DHT22;3540;53.242;10.408;2022-12-17T05:25:11;-4.20;99.90
7000;DHT22;3540;53.242;10.408;2022-12-17T05:27:55;-4.30;99.90
7000;DHT22;3540;53.242;10.408;2022-12-17T05:30:39;-4.30;99.90
7000;DHT22;3540;53.242;10.408;2022-12-17T05:33:23;-4.40;99.90
7000;DHT22;3540;53.242;10.408;2022-12-17T05:36:07;-4.40;99.90
7000;DHT22;3540;53.242;10.408;2022-12-17T05:38:51;-4.40;99.90
7000;DHT22;3540;53.242;10.408;2022-12-17T05:41:35;-4.50;99.90
7000;DHT22;3540;53.242;10.408;2022-12-17T05:44:19;-4.60;99.90
7000;DHT22;3540;53.242;10.408;2022-12-17T05:47:08;-4.60;99.90
7000;DHT22;3540;53.242;10.408;2022-12-17T05:49:52;-4.70;99.90
7000;DHT22;3540;53.242;10.408;2022-12-17T05:52:36;-4.70;99.90
7000;DHT22;3540;53.242;10.408;2022-12-17T05:55:21;-4.80;99.90
7000;DHT22;3540;53.242;10.408;2022-12-17T05:58:08;-4.80;99.90
7000;DHT22;3540;53.242;10.408;2022-12-17T06:00:58;-4.90;99.90
7000;DHT22;3540;53.242;10.408;2022-12-17T06:03:43;-4.90;99.90
7000;DHT22;3540;53.242;10.408;2022-12-17T06:06:27;-5.00;99.90
7000;DHT22;3540;53.242;10.408;2022-12-17T06:09:11;-5.00;99.90
7000;DHT22;3540;53.242;10.408;2022-12-17T06:11:55;-5.00;99.90
7000;DHT22;3540;53.242;10.408;2022-12-17T06:14:39;-5.10;99.90
7000;DHT22;3540;53.242;10.408;2022-12-17T06:17:23;-5.10;99.90
7000;DHT22;3540;53.242;10.408;2022-12-17T06:20:08;-5.10;99.90
7000;DHT22;3540;53.242;10.408;2022-12-17T06:23:06;-5.20;99.90
7000;DHT22;3540;53.242;10.408;2022-12-17T06:25:52;-5.10;99.90
7000;DHT22;3540;53.242;10.408;2022-12-17T06:28:36;-5.10;99.90
7000;DHT22;3540;53.242;10.408;2022-12-17T06:31:21;-5.20;99.90
7000;DHT22;3540;53.242;10.408;2022-12-17T06:34:04;-5.20;99.90
7000;DHT22;3540;53.242;10.408;2022-12-17T06:36:49;-5.20;99.90
7000;DHT22;3540;53.242;10.408;2022-12-17T06:39:33;-5.30;99.90
7000;DHT22;3540;53.242;10.408;2022-12-17T06:42:17;-5.30;99.90
7000;DHT22;3540;53.242;10.408;2022-12-17T06:45:01;-5.40;99.90
7000;DHT22;3540;53.242;10.408;2022-12-17T06:47:45;-5.40;99.90
7000;DHT22;3540;53.242;10.408;2022-12-17T06:50:29;-5.50;99.90
7000;DHT22;3540;53.242;10.408;2022-12-17T06:53:13;-5.60;99.90
7000;DHT22;3540;53.242;10.408;2022-12-17T06:55:59;-5.60;99.90
7000;DHT22;3540;53.242;10.408;2022-12-17T06:58:43;-5.60;99.90
7000;DHT22;3540;53.242;10.408;2022-12-17T07:01:44;-5.70;99.90
7000;DHT22;3540;53.242;10.408;2022-12-17T07:04:28;-5.70;99.90
7000;DHT22;3540;53.242;10.408;2022-12-17T07:07:13;-5.70;99.90
7000;DHT22;3540;53.242;10.408;2022-12-17T07:09:57;-5.70;99.90
7000;DHT22;3540;53.242;10.408;2022-12-17T07:12:41;-5.80;99.90
7000;DHT22;3540;53.242;10.408;2022-12-17T07:15:25;-5.80;99.90
7000;DHT22;3540;53.242;10.408;2022-12-17T07:18:10;-5.90;99.90
7000;DHT22;3540;53.242;10.408;2022-12-17T07:20:54;-5.90;99.90
7000;DHT22;3540;53.242;10.408;2022-12-17T07:23:38;-5.90;99.90
7000;DHT22;3540;53.242;10.408;2022-12-17T07:26:22;-5.90;99.90
7000;DHT22;3540;53.242;10.408;2022-12-17T07:29:06;-6.00;99.90
7000;DHT22;3540;53.242;10.408;2022-12-17T07:31:50;-6.00;99.90
7000;DHT22;3540;53.242;10.408;2022-12-17T07:34:34;-6.00;99.90
7000;DHT22;3540;53.242;10.408;2022-12-17T07:37:18;-6.10;99.90
7000;DHT22;3540;53.242;10.408;2022-12-17T07:40:03;-6.10;99.90
7000;DHT22;3540;53.242;10.408;2022-12-17T07:42:47;-6.10;99.90
7000;DHT22;3540;53.242;10.408;2022-12-17T07:45:31;-6.10;99.90
7000;DHT22;3540;53.242;10.408;2022-12-17T07:48:15;-6.10;99.90
7000;DHT22;3540;53.242;10.408;2022-12-17T07:50:59;-6.10;99.90
7000;DHT22;3540;53.242;10.408;2022-12-17T07:53:44;-6.10;99.90
7000;DHT22;3540;53.242;10.408;2022-12-17T07:56:28;-6.10;99.90
7000;DHT22;3540;53.242;10.408;2022-12-17T07:59:12;-6.10;99.90
7000;DHT22;3540;53.242;10.408;2022-12-17T08:01:59;-6.10;99.90
7000;DHT22;3540;53.242;10.408;2022-12-17T08:04:43;-6.00;99.90
7000;DHT22;3540;53.242;10.408;2022-12-17T08:07:43;-6.00;99.90
7000;DHT22;3540;53.242;10.408;2022-12-17T08:10:28;-6.00;99.90
7000;DHT22;3540;53.242;10.408;2022-12-17T08:13:12;-5.90;99.90
7000;DHT22;3540;53.242;10.408;2022-12-17T08:15:56;-5.90;99.90
7000;DHT22;3540;53.242;10.408;2022-12-17T08:18:40;-5.90;99.90
7000;DHT22;3540;53.242;10.408;2022-12-17T08:21:24;-5.80;99.90
7000;DHT22;3540;53.242;10.408;2022-12-17T08:24:08;-5.80;99.90
7000;DHT22;3540;53.242;10.408;2022-12-17T08:26:52;-5.70;99.90
7000;DHT22;3540;53.242;10.408;2022-12-17T08:29:37;-5.60;99.90
7000;DHT22;3540;53.242;10.408;2022-12-17T08:32:21;-5.50;99.90
7000;DHT22;3540;53.242;10.408;2022-12-17T08:35:06;-5.50;99.90
7000;DHT22;3540;53.242;10.408;2022-12-17T08:37:50;-5.50;99.90
7000;DHT22;3540;53.242;10.408;2022-12-17T08:40:34;-5.40;99.90
7000;DHT22;3540;53.242;10.408;2022-12-17T08:43:18;-5.30;99.90
7000;DHT22;3540;53.242;10.408;2022-12-17T08:46:02;-5.20;99.90
7000;DHT22;3540;53.242;10.408;2022-12-17T08:48:47;-5.10;99.90
7000;DHT22;3540;53.242;10.408;2022-12-17T08:51:31;-5.00;99.90
7000;DHT22;3540;53.242;10.408;2022-12-17T08:54:15;-4.90;99.90
7000;DHT22;3540;53.242;10.408;2022-12-17T08:56:59;-4.80;99.90
7000;DHT22;3540;53.242;10.408;2022-12-17T08:59:43;-4.60;99.90
7000;DHT22;3540;53.242;10.408;2022-12-17T09:02:27;-4.50;99.90
7000;DHT22;3540;53.242;10.408;2022-12-17T09:05:11;-4.40;99.90
7000;DHT22;3540;53.242;10.408;2022-12-17T09:08:00;-4.40;99.90
7000;DHT22;3540;53.242;10.408;2022-12-17T09:10:45;-4.30;99.90
7000;DHT22;3540;53.242;10.408;2022-12-17T09:13:30;-4.20;99.90
7000;DHT22;3540;53.242;10.408;2022-12-17T09:16:14;-4.10;99.90
7000;DHT22;3540;53.242;10.408;2022-12-17T09:18:58;-4.10;99.90
7000;DHT22;3540;53.242;10.408;2022-12-17T09:21:42;-4.00;99.90
7000;DHT22;3540;53.242;10.408;2022-12-17T09:24:26;-3.90;99.90
7000;DHT22;3540;53.242;10.408;2022-12-17T09:27:11;-3.90;99.90
7000;DHT22;3540;53.242;10.408;2022-12-17T09:29:55;-3.70;99.90
7000;DHT22;3540;53.242;10.408;2022-12-17T09:32:39;-3.70;99.90
7000;DHT22;3540;53.242;10.408;2022-12-17T09:35:23;-3.70;99.90
7000;DHT22;3540;53.242;10.408;2022-12-17T09:38:10;-3.70;99.90
7000;DHT22;3540;53.242;10.408;2022-12-17T09:41:00;-3.70;99.90
7000;DHT22;3540;53.242;10.408;2022-12-17T09:43:54;-3.50;99.90
7000;DHT22;3540;53.242;10.408;2022-12-17T09:49:36;-3.30;99.90
7000;DHT22;3540;53.242;10.408;2022-12-17T09:52:25;-3.20;99.90
7000;DHT22;3540;53.242;10.408;2022-12-17T09:55:45;-3.20;99.90
7000;DHT22;3540;53.242;10.408;2022-12-17T09:58:30;-3.00;99.90
7000;DHT22;3540;53.242;10.408;2022-12-17T10:01:24;-3.00;99.90
7000;DHT22;3540;53.242;10.408;2022-12-17T10:04:23;-2.90;99.90
7000;DHT22;3540;53.242;10.408;2022-12-17T10:07:14;-2.80;99.90
7000;DHT22;3540;53.242;10.408;2022-12-17T10:10:09;-2.70;99.90
7000;DHT22;3540;53.242;10.408;2022-12-17T10:12:55;-2.50;99.90
7000;DHT22;3540;53.242;10.408;2022-12-17T10:15:41;-2.40;99.90
7000;DHT22;3540;53.242;10.408;2022-12-17T10:18:25;-2.40;99.90
7000;DHT22;3540;53.242;10.408;2022-12-17T10:21:10;-2.30;99.90
7000;DHT22;3540;53.242;10.408;2022-12-17T10:24:09;-2.20;99.90
7000;DHT22;3540;53.242;10.408;2022-12-17T10:26:53;-2.10;99.90
7000;DHT22;3540;53.242;10.408;2022-12-17T10:29:39;-2.00;99.90
7000;DHT22;3540;53.242;10.408;2022-12-17T10:32:25;-1.90;99.90
7000;DHT22;3540;53.242;10.408;2022-12-17T10:35:19;-1.80;99.90
7000;DHT22;3540;53.242;10.408;2022-12-17T10:38:23;-1.70;99.90
7000;DHT22;3540;53.242;10.408;2022-12-17T10:44:34;-1.50;99.90
7000;DHT22;3540;53.242;10.408;2022-12-17T10:47:24;-1.40;99.90
7000;DHT22;3540;53.242;10.408;2022-12-17T10:50:12;-1.20;99.90
7000;DHT22;3540;53.242;10.408;2022-12-17T10:52:58;-1.00;99.90
7000;DHT22;3540;53.242;10.408;2022-12-17T10:55:58;-0.90;99.90
7000;DHT22;3540;53.242;10.408;2022-12-17T10:58:49;-0.70;99.90
7000;DHT22;3540;53.242;10.408;2022-12-17T11:01:33;-0.60;99.90
7000;DHT22;3540;53.242;10.408;2022-12-17T11:04:29;-0.40;99.90
7000;DHT22;3540;53.242;10.408;2022-12-17T11:10:14;-0.30;99.90
7000;DHT22;3540;53.242;10.408;2022-12-17T11:13:03;-0.30;99.90
7000;DHT22;3540;53.242;10.408;2022-12-17T11:15:51;-0.20;99.90
7000;DHT22;3540;53.242;10.408;2022-12-17T11:18:58;0.00;99.90
7000;DHT22;3540;53.242;10.408;2022-12-17T11:21:49;0.10;99.90
7000;DHT22;3540;53.242;10.408;2022-12-17T11:24:41;0.20;99.90
7000;DHT22;3540;53.242;10.408;2022-12-17T11:27:31;0.20;99.90
7000;DHT22;3540;53.242;10.408;2022-12-17T11:30:17;0.10;99.90
7000;DHT22;3540;53.242;10.408;2022-12-17T11:36:05;0.10;99.90
7000;DHT22;3540;53.242;10.408;2022-12-17T11:42:07;0.20;99.90
7000;DHT22;3540;53.242;10.408;2022-12-17T12:00:18;0.60;99.90
7000;DHT22;3540;53.242;10.408;2022-12-17T12:06:16;0.80;99.90
7000;DHT22;3540;53.242;10.408;2022-12-17T12:18:19;1.10;99.90
7000;DHT22;3540;53.242;10.408;2022-12-17T12:21:38;1.20;99.90
7000;DHT22;3540;53.242;10.408;2022-12-17T12:27:27;1.30;99.90
7000;DHT22;3540;53.242;10.408;2022-12-17T12:30:23;1.20;99.90
7000;DHT22;3540;53.242;10.408;2022-12-17T12:35:59;1.30;99.90
7000;DHT22;3540;53.242;10.408;2022-12-17T12:38:53;1.30;99.90
7000;DHT22;3540;53.242;10.408;2022-12-17T12:47:33;1.20;99.90
7000;DHT22;3540;53.242;10.408;2022-12-17T12:50:38;1.10;99.90
7000;DHT22;3540;53.242;10.408;2022-12-17T12:53:23;1.00;99.90
7000;DHT22;3540;53.242;10.408;2022-12-17T12:56:46;1.00;99.90
7000;DHT22;3540;53.242;10.408;2022-12-17T12:59:33;0.90;99.90
7000;DHT22;3540;53.242;10.408;2022-12-17T13:02:31;0.90;99.90
7000;DHT22;3540;53.242;10.408;2022-12-17T13:08:20;0.80;99.90
7000;DHT22;3540;53.242;10.408;2022-12-17T13:10:48;0.90;99.90
7000;DHT22;3540;53.242;10.408;2022-12-17T13:15:48;0.90;99.90
7000;DHT22;3540;53.242;10.408;2022-12-17T13:18:23;0.90;99.90
7000;DHT22;3540;53.242;10.408;2022-12-17T13:23:32;0.80;99.90
7000;DHT22;3540;53.242;10.408;2022-12-17T13:29:00;0.80;99.90
7000;DHT22;3540;53.242;10.408;2022-12-17T13:31:57;0.80;99.90
7000;DHT22;3540;53.242;10.408;2022-12-17T13:37:04;0.80;99.90
7000;DHT22;3540;53.242;10.408;2022-12-17T13:39:40;0.80;99.90
7000;DHT22;3540;53.242;10.408;2022-12-17T13:42:17;0.80;99.90
7000;DHT22;3540;53.242;10.408;2022-12-17T13:44:45;0.80;99.90
7000;DHT22;3540;53.242;10.408;2022-12-17T13:47:25;0.70;99.90
7000;DHT22;3540;53.242;10.408;2022-12-17T13:49:54;0.70;99.90
7000;DHT22;3540;53.242;10.408;2022-12-17T13:52:24;0.60;99.90
7000;DHT22;3540;53.242;10.408;2022-12-17T13:54:51;0.60;99.90
7000;DHT22;3540;53.242;10.408;2022-12-17T13:57:21;0.60;99.90
7000;DHT22;3540;53.242;10.408;2022-12-17T13:59:52;0.60;99.90
7000;DHT22;3540;53.242;10.408;2022-12-17T14:02:29;0.60;99.90
7000;DHT22;3540;53.242;10.408;2022-12-17T14:04:58;0.60;99.90
7000;DHT22;3540;53.242;10.408;2022-12-17T14:07:25;0.50;99.90
7000;DHT22;3540;53.242;10.408;2022-12-17T14:09:52;0.50;99.90
7000;DHT22;3540;53.242;10.408;2022-12-17T14:12:19;0.50;99.90
7000;DHT22;3540;53.242;10.408;2022-12-17T14:17:25;0.40;99.90
7000;DHT22;3540;53.242;10.408;2022-12-17T14:20:00;0.30;99.90
7000;DHT22;3540;53.242;10.408;2022-12-17T14:22:40;0.20;99.90
7000;DHT22;3540;53.242;10.408;2022-12-17T14:25:15;0.10;99.90
7000;DHT22;3540;53.242;10.408;2022-12-17T14:28:02;0.10;99.90
7000;DHT22;3540;53.242;10.408;2022-12-17T14:30:41;0.00;99.90
7000;DHT22;3540;53.242;10.408;2022-12-17T14:33:32;-0.10;99.90
7000;DHT22;3540;53.242;10.408;2022-12-17T14:36:18;-0.20;99.90
7000;DHT22;3540;53.242;10.408;2022-12-17T14:39:04;-0.30;99.90
7000;DHT22;3540;53.242;10.408;2022-12-17T14:41:37;-0.40;99.90
7000;DHT22;3540;53.242;10.408;2022-12-17T14:44:26;-0.40;99.90
7000;DHT22;3540;53.242;10.408;2022-12-17T14:47:10;-0.50;99.90
7000;DHT22;3540;53.242;10.408;2022-12-17T14:49:57;-0.60;99.90
7000;DHT22;3540;53.242;10.408;2022-12-17T14:58:26;-0.90;99.90
7000;DHT22;3540;53.242;10.408;2022-12-17T15:01:21;-1.00;99.90
7000;DHT22;3540;53.242;10.408;2022-12-17T15:03:47;-1.10;99.90
7000;DHT22;3540;53.242;10.408;2022-12-17T15:06:16;-1.20;99.90
7000;DHT22;3540;53.242;10.408;2022-12-17T15:08:45;-1.30;99.90
7000;DHT22;3540;53.242;10.408;2022-12-17T15:11:13;-1.40;99.90
7000;DHT22;3540;53.242;10.408;2022-12-17T15:13:39;-1.40;99.90
7000;DHT22;3540;53.242;10.408;2022-12-17T15:16:06;-1.50;99.90
7000;DHT22;3540;53.242;10.408;2022-12-17T15:18:31;-1.50;99.90
7000;DHT22;3540;53.242;10.408;2022-12-17T15:20:57;-1.60;99.90
7000;DHT22;3540;53.242;10.408;2022-12-17T15:23:23;-1.70;99.90
7000;DHT22;3540;53.242;10.408;2022-12-17T15:25:51;-1.70;99.90
7000;DHT22;3540;53.242;10.408;2022-12-17T15:28:18;-1.80;99.90
7000;DHT22;3540;53.242;10.408;2022-12-17T15:30:44;-1.80;99.90
7000;DHT22;3540;53.242;10.408;2022-12-17T15:33:11;-1.80;99.90
7000;DHT22;3540;53.242;10.408;2022-12-17T15:35:38;-1.90;99.90
7000;DHT22;3540;53.242;10.408;2022-12-17T15:38:04;-1.90;99.90
7000;DHT22;3540;53.242;10.408;2022-12-17T15:40:30;-1.90;99.90
7000;DHT22;3540;53.242;10.408;2022-12-17T15:42:56;-2.00;99.90
7000;DHT22;3540;53.242;10.408;2022-12-17T15:45:42;-2.00;99.90
7000;DHT22;3540;53.242;10.408;2022-12-17T15:48:09;-2.10;99.90
7000;DHT22;3540;53.242;10.408;2022-12-17T15:50:36;-2.10;99.90
7000;DHT22;3540;53.242;10.408;2022-12-17T15:53:01;-2.20;99.90
7000;DHT22;3540;53.242;10.408;2022-12-17T15:55:27;-2.20;99.90
7000;DHT22;3540;53.242;10.408;2022-12-17T15:57:54;-2.20;99.90
7000;DHT22;3540;53.242;10.408;2022-12-17T16:00:19;-2.30;99.90
7000;DHT22;3540;53.242;10.408;2022-12-17T16:02:46;-2.30;99.90
7000;DHT22;3540;53.242;10.408;2022-12-17T16:05:12;-2.30;99.90
7000;DHT22;3540;53.242;10.408;2022-12-17T16:07:38;-2.30;99.90
7000;DHT22;3540;53.242;10.408;2022-12-17T16:10:05;-2.40;99.90
7000;DHT22;3540;53.242;10.408;2022-12-17T16:12:31;-2.40;99.90
7000;DHT22;3540;53.242;10.408;2022-12-17T16:14:57;-2.50;99.90
7000;DHT22;3540;53.242;10.408;2022-12-17T16:17:23;-2.50;99.90
7000;DHT22;3540;53.242;10.408;2022-12-17T16:19:48;-2.50;99.90
7000;DHT22;3540;53.242;10.408;2022-12-17T16:22:14;-2.60;99.90
7000;DHT22;3540;53.242;10.408;2022-12-17T16:24:39;-2.60;99.90
7000;DHT22;3540;53.242;10.408;2022-12-17T16:27:08;-2.60;99.90
7000;DHT22;3540;53.242;10.408;2022-12-17T16:29:34;-2.70;99.90
7000;DHT22;3540;53.242;10.408;2022-12-17T16:32:02;-2.70;99.90
7000;DHT22;3540;53.242;10.408;2022-12-17T16:34:27;-2.70;99.90
7000;DHT22;3540;53.242;10.408;2022-12-17T16:36:53;-2.80;99.90
7000;DHT22;3540;53.242;10.408;2022-12-17T16:39:19;-2.90;99.90
7000;DHT22;3540;53.242;10.408;2022-12-17T16:41:44;-2.90;99.90
7000;DHT22;3540;53.242;10.408;2022-12-17T16:44:10;-3.00;99.90
7000;DHT22;3540;53.242;10.408;2022-12-17T16:46:38;-3.00;99.90
7000;DHT22;3540;53.242;10.408;2022-12-17T16:49:10;-3.00;99.90
7000;DHT22;3540;53.242;10.408;2022-12-17T16:51:36;-3.00;99.90
7000;DHT22;3540;53.242;10.408;2022-12-17T16:54:09;-3.00;99.90
7000;DHT22;3540;53.242;10.408;2022-12-17T16:56:35;-3.10;99.90
7000;DHT22;3540;53.242;10.408;2022-12-17T16:59:04;-3.10;99.90
7000;DHT22;3540;53.242;10.408;2022-12-17T17:01:32;-3.10;99.90
7000;DHT22;3540;53.242;10.408;2022-12-17T17:03:58;-3.10;99.90
7000;DHT22;3540;53.242;10.408;2022-12-17T17:06:25;-3.10;99.90
7000;DHT22;3540;53.242;10.408;2022-12-17T17:08:51;-3.10;99.90
7000;DHT22;3540;53.242;10.408;2022-12-17T17:11:20;-3.20;99.90
7000;DHT22;3540;53.242;10.408;2022-12-17T17:13:47;-3.20;99.90
7000;DHT22;3540;53.242;10.408;2022-12-17T17:16:14;-3.20;99.90
7000;DHT22;3540;53.242;10.408;2022-12-17T17:18:39;-3.30;99.90
7000;DHT22;3540;53.242;10.408;2022-12-17T17:21:25;-3.30;99.90
7000;DHT22;3540;53.242;10.408;2022-12-17T17:26:20;-3.40;99.90
7000;DHT22;3540;53.242;10.408;2022-12-17T17:28:46;-3.40;99.90
7000;DHT22;3540;53.242;10.408;2022-12-17T17:31:13;-3.50;99.90
7000;DHT22;3540;53.242;10.408;2022-12-17T17:33:41;-3.50;99.90
7000;DHT22;3540;53.242;10.408;2022-12-17T17:36:10;-3.50;99.90
7000;DHT22;3540;53.242;10.408;2022-12-17T17:38:37;-3.50;99.90
7000;DHT22;3540;53.242;10.408;2022-12-17T17:41:05;-3.50;99.90
7000;DHT22;3540;53.242;10.408;2022-12-17T17:43:32;-3.60;99.90
7000;DHT22;3540;53.242;10.408;2022-12-17T17:46:05;-3.60;99.90
7000;DHT22;3540;53.242;10.408;2022-12-17T17:48:32;-3.70;99.90
7000;DHT22;3540;53.242;10.408;2022-12-17T17:50:59;-3.70;99.90
7000;DHT22;3540;53.242;10.408;2022-12-17T17:53:25;-3.70;99.90
7000;DHT22;3540;53.242;10.408;2022-12-17T17:55:50;-3.70;99.90
7000;DHT22;3540;53.242;10.408;2022-12-17T17:58:16;-3.70;99.90
7000;DHT22;3540;53.242;10.408;2022-12-17T18:00:42;-3.80;99.90
7000;DHT22;3540;53.242;10.408;2022-12-17T18:03:07;-3.80;99.90
7000;DHT22;3540;53.242;10.408;2022-12-17T18:05:39;-3.80;99.90
7000;DHT22;3540;53.242;10.408;2022-12-17T18:08:07;-3.80;99.90
7000;DHT22;3540;53.242;10.408;2022-12-17T18:10:33;-3.80;99.90
7000;DHT22;3540;53.242;10.408;2022-12-17T18:12:58;-3.90;99.90
7000;DHT22;3540;53.242;10.408;2022-12-17T18:15:43;-3.90;99.90
7000;DHT22;3540;53.242;10.408;2022-12-17T18:18:09;-3.90;99.90
7000;DHT22;3540;53.242;10.408;2022-12-17T18:20:34;-4.00;99.90
7000;DHT22;3540;53.242;10.408;2022-12-17T18:23:00;-4.00;99.90
7000;DHT22;3540;53.242;10.408;2022-12-17T18:25:26;-4.00;99.90
7000;DHT22;3540;53.242;10.408;2022-12-17T18:27:52;-4.00;99.90
7000;DHT22;3540;53.242;10.408;2022-12-17T18:30:18;-4.00;99.90
7000;DHT22;3540;53.242;10.408;2022-12-17T18:32:44;-4.10;99.90
7000;DHT22;3540;53.242;10.408;2022-12-17T18:35:10;-4.10;99.90
7000;DHT22;3540;53.242;10.408;2022-12-17T18:37:36;-4.10;99.90
7000;DHT22;3540;53.242;10.408;2022-12-17T18:40:03;-4.10;99.90
7000;DHT22;3540;53.242;10.408;2022-12-17T18:42:30;-4.10;99.90
7000;DHT22;3540;53.242;10.408;2022-12-17T18:45:14;-4.20;99.90
7000;DHT22;3540;53.242;10.408;2022-12-17T18:47:40;-4.20;99.90